sensor_id;sensor_type;location;lat;lon;timestamp;temperature;humidity
24772;DHT22;12870;52.274;9.754;2023-03-01T00:02:20;-1.70;99.90
24772;DHT22;12870;52.274;9.754;2023-03-01T00:04:46;-1.70;99.90
24772;DHT22;12870;52.274;9.754;2023-03-01T00:07:12;-1.80;99.90
24772;DHT22;12870;52.274;9.754;2023-03-01T00:09:38;-1.80;99.90
24772;DHT22;12870;52.274;9.754;2023-03-01T00:12:06;-1.90;99.90
24772;DHT22;12870;52.274;9.754;2023-03-01T00:14:31;-1.90;99.90
24772;DHT22;12870;52.274;9.754;2023-03-01T00:16:57;-1.90;99.90
24772;DHT22;12870;52.274;9.754;2023-03-01T00:19:23;-1.90;99.90
24772;DHT22;12870;52.274;9.754;2023-03-01T00:21:49;-2.00;99.90
24772;DHT22;12870;52.274;9.754;2023-03-01T00:24:15;-2.00;99.90
24772;DHT22;12870;52.274;9.754;2023-03-01T00:26:41;-2.10;99.90
24772;DHT22;12870;52.274;9.754;2023-03-01T00:29:07;-2.10;99.90
24772;DHT22;12870;52.274;9.754;2023-03-01T00:31:33;-2.10;99.90
24772;DHT22;12870;52.274;9.754;2023-03-01T00:34:04;-2.20;99.90
24772;DHT22;12870;52.274;9.754;2023-03-01T00:36:32;-2.20;99.90
24772;DHT22;12870;52.274;9.754;2023-03-01T00:38:59;-2.20;99.90
24772;DHT22;12870;52.274;9.754;2023-03-01T00:41:25;-2.20;99.90
24772;DHT22;12870;52.274;9.754;2023-03-01T00:43:54;-2.20;99.90
24772;DHT22;12870;52.274;9.754;2023-03-01T00:46:21;-2.30;99.90
24772;DHT22;12870;52.274;9.754;2023-03-01T00:48:47;-2.30;99.90
24772;DHT22;12870;52.274;9.754;2023-03-01T00:51:16;-2.30;99.90
24772;DHT22;12870;52.274;9.754;2023-03-01T00:53:42;-2.40;99.90
24772;DHT22;12870;52.274;9.754;2023-03-01T00:56:09;-2.40;99.90
24772;DHT22;12870;52.274;9.754;2023-03-01T00:58:35;-2.40;99.90
24772;DHT22;12870;52.274;9.754;2023-03-01T01:01:06;-2.40;99.90
24772;DHT22;12870;52.274;9.754;2023-03-01T01:03:32;-2.50;99.90
24772;DHT22;12870;52.274;9.754;2023-03-01T01:05:57;-2.40;99.90
24772;DHT22;12870;52.274;9.754;2023-03-01T01:08:23;-2.50;99.90
24772;DHT22;12870;52.274;9.754;2023-03-01T01:10:49;-2.50;99.90
24772;DHT22;12870;52.274;9.754;2023-03-01T01:13:15;-2.50;99.90
24772;DHT22;12870;52.274;9.754;2023-03-01T01:15:40;-2.50;99.90
24772;DHT22;12870;52.274;9.754;2023-03-01T01:18:06;-2.50;99.90
24772;DHT22;12870;52.274;9.754;2023-03-01T01:20:32;-2.60;99.90
24772;DHT22;12870;52.274;9.754;2023-03-01T01:22:58;-2.60;99.90
24772;DHT22;12870;52.274;9.754;2023-03-01T01:25:24;-2.60;99.90
24772;DHT22;12870;52.274;9.754;2023-03-01T01:27:52;-2.60;99.90
24772;DHT22;12870;52.274;9.754;2023-03-01T01:30:18;-2.70;99.90
24772;DHT22;12870;52.274;9.754;2023-03-01T01:32:43;-2.70;99.90
24772;DHT22;12870;52.274;9.754;2023-03-01T01:35:09;-2.70;99.90
24772;DHT22;12870;52.274;9.754;2023-03-01T01:37:35;-2.70;99.90
24772;DHT22;12870;52.274;9.754;2023-03-01T01:40:01;-2.70;99.90
24772;DHT22;12870;52.274;9.754;2023-03-01T01:42:29;-2.70;99.90
24772;DHT22;12870;52.274;9.754;2023-03-01T01:45:28;-2.70;99.90
24772;DHT22;12870;52.274;9.754;2023-03-01T01:47:57;-2.80;99.90
24772;DHT22;12870;52.274;9.754;2023-03-01T01:50:24;-2.90;99.90
24772;DHT22;12870;52.274;9.754;2023-03-01T01:52:51;-2.90;99.90
24772;DHT22;12870;52.274;9.754;2023-03-01T01:55:21;-2.90;99.90
24772;DHT22;12870;52.274;9.754;2023-03-01T01:57:52;-2.90;99.90
24772;DHT22;12870;52.274;9.754;2023-03-01T02:00:21;-2.90;99.90
24772;DHT22;12870;52.274;9.754;2023-03-01T02:02:50;-3.00;99.90
24772;DHT22;12870;52.274;9.754;2023-03-01T02:07:43;-3.00;99.90
24772;DHT22;12870;52.274;9.754;2023-03-01T02:10:10;-3.00;99.90
24772;DHT22;12870;52.274;9.754;2023-03-01T02:12:36;-3.00;99.90
24772;DHT22;12870;52.274;9.754;2023-03-01T02:15:05;-3.10;99.90
24772;DHT22;12870;52.274;9.754;2023-03-01T02:17:31;-3.10;99.90
24772;DHT22;12870;52.274;9.754;2023-03-01T02:22:25;-3.10;99.90
24772;DHT22;12870;52.274;9.754;2023-03-01T02:25:12;-3.10;99.90
24772;DHT22;12870;52.274;9.754;2023-03-01T02:30:39;-3.20;99.90
24772;DHT22;12870;52.274;9.754;2023-03-01T02:33:26;-3.20;99.90
24772;DHT22;12870;52.274;9.754;2023-03-01T02:35:54;-3.30;99.90
24772;DHT22;12870;52.274;9.754;2023-03-01T02:38:21;-3.30;99.90
24772;DHT22;12870;52.274;9.754;2023-03-01T02:40:49;-3.30;99.90
24772;DHT22;12870;52.274;9.754;2023-03-01T02:43:16;-3.30;99.90
24772;DHT22;12870;52.274;9.754;2023-03-01T02:45:50;-3.30;99.90
24772;DHT22;12870;52.274;9.754;2023-03-01T02:48:18;-3.30;99.90
24772;DHT22;12870;52.274;9.754;2023-03-01T02:51:05;-3.30;99.90
24772;DHT22;12870;52.274;9.754;2023-03-01T02:56:02;-3.30;99.90
24772;DHT22;12870;52.274;9.754;2023-03-01T02:58:28;-3.30;99.90
24772;DHT22;12870;52.274;9.754;2023-03-01T03:00:54;-3.30;99.90
24772;DHT22;12870;52.274;9.754;2023-03-01T03:03:21;-3.30;99.90
24772;DHT22;12870;52.274;9.754;2023-03-01T03:05:47;-3.30;99.90
24772;DHT22;12870;52.274;9.754;2023-03-01T03:08:14;-3.30;99.90
24772;DHT22;12870;52.274;9.754;2023-03-01T03:10:42;-3.30;99.90
24772;DHT22;12870;52.274;9.754;2023-03-01T03:13:13;-3.40;99.90
24772;DHT22;12870;52.274;9.754;2023-03-01T03:15:40;-3.40;99.90
24772;DHT22;12870;52.274;9.754;2023-03-01T03:18:09;-3.50;99.90
24772;DHT22;12870;52.274;9.754;2023-03-01T03:20:36;-3.50;99.90
24772;DHT22;12870;52.274;9.754;2023-03-01T03:23:02;-3.50;99.90
24772;DHT22;12870;52.274;9.754;2023-03-01T03:25:29;-3.50;99.90
24772;DHT22;12870;52.274;9.754;2023-03-01T03:27:55;-3.50;99.90
24772;DHT22;12870;52.274;9.754;2023-03-01T03:30:30;-3.50;99.90
24772;DHT22;12870;52.274;9.754;2023-03-01T03:32:57;-3.50;99.90
24772;DHT22;12870;52.274;9.754;2023-03-01T03:35:32;-3.50;99.90
24772;DHT22;12870;52.274;9.754;2023-03-01T03:38:05;-3.50;99.90
24772;DHT22;12870;52.274;9.754;2023-03-01T03:40:42;-3.60;99.90
24772;DHT22;12870;52.274;9.754;2023-03-01T03:43:11;-3.60;99.90
24772;DHT22;12870;52.274;9.754;2023-03-01T03:45:37;-3.60;99.90
24772;DHT22;12870;52.274;9.754;2023-03-01T03:48:04;-3.60;99.90
24772;DHT22;12870;52.274;9.754;2023-03-01T03:50:30;-3.70;99.90
24772;DHT22;12870;52.274;9.754;2023-03-01T03:52:56;-3.70;99.90
24772;DHT22;12870;52.274;9.754;2023-03-01T03:55:22;-3.70;99.90
24772;DHT22;12870;52.274;9.754;2023-03-01T03:57:48;-3.70;99.90
24772;DHT22;12870;52.274;9.754;2023-03-01T04:00:21;-3.70;99.90
24772;DHT22;12870;52.274;9.754;2023-03-01T04:02:49;-3.70;99.90
24772;DHT22;12870;52.274;9.754;2023-03-01T04:05:18;-3.70;99.90
24772;DHT22;12870;52.274;9.754;2023-03-01T04:07:44;-3.70;99.90
24772;DHT22;12870;52.274;9.754;2023-03-01T04:10:13;-3.80;99.90
24772;DHT22;12870;52.274;9.754;2023-03-01T04:12:39;-3.80;99.90
24772;DHT22;12870;52.274;9.754;2023-03-01T04:15:07;-3.70;99.90
24772;DHT22;12870;52.274;9.754;2023-03-01T04:17:43;-3.80;99.90
24772;DHT22;12870;52.274;9.754;2023-03-01T04:20:11;-3.80;99.90
24772;DHT22;12870;52.274;9.754;2023-03-01T04:22:38;-3.80;99.90
24772;DHT22;12870;52.274;9.754;2023-03-01T04:25:04;-3.80;99.90
24772;DHT22;12870;52.274;9.754;2023-03-01T04:27:33;-3.80;99.90
24772;DHT22;12870;52.274;9.754;2023-03-01T04:29:59;-3.80;99.90
24772;DHT22;12870;52.274;9.754;2023-03-01T04:32:24;-3.80;99.90
24772;DHT22;12870;52.274;9.754;2023-03-01T04:34:50;-3.80;99.90
24772;DHT22;12870;52.274;9.754;2023-03-01T04:37:15;-3.80;99.90
24772;DHT22;12870;52.274;9.754;2023-03-01T04:39:41;-3.80;99.90
24772;DHT22;12870;52.274;9.754;2023-03-01T04:42:20;-3.80;99.90
24772;DHT22;12870;52.274;9.754;2023-03-01T04:44:46;-3.80;99.90
24772;DHT22;12870;52.274;9.754;2023-03-01T04:47:12;-3.80;99.90
24772;DHT22;12870;52.274;9.754;2023-03-01T04:49:38;-3.90;99.90
24772;DHT22;12870;52.274;9.754;2023-03-01T04:52:04;-3.90;99.90
24772;DHT22;12870;52.274;9.754;2023-03-01T04:54:33;-3.90;99.90
24772;DHT22;12870;52.274;9.754;2023-03-01T04:57:00;-4.00;99.90
24772;DHT22;12870;52.274;9.754;2023-03-01T04:59:26;-4.00;99.90
24772;DHT22;12870;52.274;9.754;2023-03-01T05:01:54;-4.00;99.90
24772;DHT22;12870;52.274;9.754;2023-03-01T05:04:25;-4.00;99.90
24772;DHT22;12870;52.274;9.754;2023-03-01T05:06:51;-4.10;99.90
24772;DHT22;12870;52.274;9.754;2023-03-01T05:09:18;-4.10;99.90
24772;DHT22;12870;52.274;9.754;2023-03-01T05:11:44;-4.10;99.90
24772;DHT22;12870;52.274;9.754;2023-03-01T05:14:10;-4.10;99.90
24772;DHT22;12870;52.274;9.754;2023-03-01T05:16:36;-4.20;99.90
24772;DHT22;12870;52.274;9.754;2023-03-01T05:19:03;-4.20;99.90
24772;DHT22;12870;52.274;9.754;2023-03-01T05:21:39;-4.20;99.90
24772;DHT22;12870;52.274;9.754;2023-03-01T05:24:25;-4.20;99.90
24772;DHT22;12870;52.274;9.754;2023-03-01T05:26:51;-4.20;99.90
24772;DHT22;12870;52.274;9.754;2023-03-01T05:29:24;-4.20;99.90
24772;DHT22;12870;52.274;9.754;2023-03-01T05:31:55;-4.20;99.90
24772;DHT22;12870;52.274;9.754;2023-03-01T05:34:28;-4.30;99.90
24772;DHT22;12870;52.274;9.754;2023-03-01T05:36:54;-4.30;99.90
24772;DHT22;12870;52.274;9.754;2023-03-01T05:39:21;-4.30;99.90
24772;DHT22;12870;52.274;9.754;2023-03-01T05:41:48;-4.30;99.90
24772;DHT22;12870;52.274;9.754;2023-03-01T05:44:16;-4.40;99.90
24772;DHT22;12870;52.274;9.754;2023-03-01T05:46:42;-4.40;99.90
24772;DHT22;12870;52.274;9.754;2023-03-01T05:49:08;-4.40;99.90
24772;DHT22;12870;52.274;9.754;2023-03-01T05:51:33;-4.40;99.90
24772;DHT22;12870;52.274;9.754;2023-03-01T05:53:59;-4.40;99.90
24772;DHT22;12870;52.274;9.754;2023-03-01T05:56:25;-4.40;99.90
24772;DHT22;12870;52.274;9.754;2023-03-01T05:58:51;-4.40;99.90
24772;DHT22;12870;52.274;9.754;2023-03-01T06:01:16;-4.40;99.90
24772;DHT22;12870;52.274;9.754;2023-03-01T06:03:42;-4.40;99.90
24772;DHT22;12870;52.274;9.754;2023-03-01T06:06:08;-4.40;99.90
24772;DHT22;12870;52.274;9.754;2023-03-01T06:08:33;-4.50;99.90
24772;DHT22;12870;52.274;9.754;2023-03-01T06:10:59;-4.50;99.90
24772;DHT22;12870;52.274;9.754;2023-03-01T06:13:25;-4.50;99.90
24772;DHT22;12870;52.274;9.754;2023-03-01T06:15:51;-4.50;99.90
24772;DHT22;12870;52.274;9.754;2023-03-01T06:18:17;-4.40;99.90
24772;DHT22;12870;52.274;9.754;2023-03-01T06:20:42;-4.40;99.90
24772;DHT22;12870;52.274;9.754;2023-03-01T06:23:08;-4.40;99.90
24772;DHT22;12870;52.274;9.754;2023-03-01T06:25:34;-4.40;99.90
24772;DHT22;12870;52.274;9.754;2023-03-01T06:28:00;-4.30;99.90
24772;DHT22;12870;52.274;9.754;2023-03-01T06:30:26;-4.30;99.90
24772;DHT22;12870;52.274;9.754;2023-03-01T06:32:51;-4.30;99.90
24772;DHT22;12870;52.274;9.754;2023-03-01T06:35:18;-4.20;99.90
24772;DHT22;12870;52.274;9.754;2023-03-01T06:37:45;-4.20;99.90
24772;DHT22;12870;52.274;9.754;2023-03-01T06:40:12;-4.20;99.90
24772;DHT22;12870;52.274;9.754;2023-03-01T06:42:41;-4.20;99.90
24772;DHT22;12870;52.274;9.754;2023-03-01T06:45:07;-4.10;99.90
24772;DHT22;12870;52.274;9.754;2023-03-01T06:47:34;-4.10;99.90
24772;DHT22;12870;52.274;9.754;2023-03-01T06:50:00;-4.00;99.90
24772;DHT22;12870;52.274;9.754;2023-03-01T06:52:26;-4.00;99.90
24772;DHT22;12870;52.274;9.754;2023-03-01T06:54:52;-4.00;99.90
24772;DHT22;12870;52.274;9.754;2023-03-01T06:57:17;-3.90;99.90
24772;DHT22;12870;52.274;9.754;2023-03-01T06:59:43;-3.90;99.90
24772;DHT22;12870;52.274;9.754;2023-03-01T07:02:12;-3.80;99.90
24772;DHT22;12870;52.274;9.754;2023-03-01T07:04:38;-3.80;99.90
24772;DHT22;12870;52.274;9.754;2023-03-01T07:07:05;-3.80;99.90
24772;DHT22;12870;52.274;9.754;2023-03-01T07:09:30;-3.70;99.90
24772;DHT22;12870;52.274;9.754;2023-03-01T07:11:57;-3.60;99.90
24772;DHT22;12870;52.274;9.754;2023-03-01T07:14:23;-3.50;99.90
24772;DHT22;12870;52.274;9.754;2023-03-01T07:16:54;-3.50;99.90
24772;DHT22;12870;52.274;9.754;2023-03-01T07:19:21;-3.40;99.90
24772;DHT22;12870;52.274;9.754;2023-03-01T07:21:47;-3.30;99.90
24772;DHT22;12870;52.274;9.754;2023-03-01T07:24:13;-3.20;99.90
24772;DHT22;12870;52.274;9.754;2023-03-01T07:26:39;-3.20;99.90
24772;DHT22;12870;52.274;9.754;2023-03-01T07:29:06;-3.10;99.90
24772;DHT22;12870;52.274;9.754;2023-03-01T07:31:32;-2.90;99.90
24772;DHT22;12870;52.274;9.754;2023-03-01T07:33:58;-2.90;99.90
24772;DHT22;12870;52.274;9.754;2023-03-01T07:36:25;-2.70;99.90
24772;DHT22;12870;52.274;9.754;2023-03-01T07:38:51;-2.70;99.90
24772;DHT22;12870;52.274;9.754;2023-03-01T07:41:17;-2.60;99.90
24772;DHT22;12870;52.274;9.754;2023-03-01T07:43:42;-2.50;99.90
24772;DHT22;12870;52.274;9.754;2023-03-01T07:46:08;-2.40;99.90
24772;DHT22;12870;52.274;9.754;2023-03-01T07:48:34;-2.40;99.90
24772;DHT22;12870;52.274;9.754;2023-03-01T07:51:01;-2.30;99.90
24772;DHT22;12870;52.274;9.754;2023-03-01T07:53:28;-2.20;99.90
24772;DHT22;12870;52.274;9.754;2023-03-01T07:56:04;-2.20;99.90
24772;DHT22;12870;52.274;9.754;2023-03-01T07:58:30;-2.10;99.90
24772;DHT22;12870;52.274;9.754;2023-03-01T08:00:56;-1.90;99.90
24772;DHT22;12870;52.274;9.754;2023-03-01T08:03:21;-1.80;99.90
24772;DHT22;12870;52.274;9.754;2023-03-01T08:05:47;-1.70;99.90
24772;DHT22;12870;52.274;9.754;2023-03-01T08:08:13;-1.70;99.90
24772;DHT22;12870;52.274;9.754;2023-03-01T08:10:38;-1.60;99.90
24772;DHT22;12870;52.274;9.754;2023-03-01T08:13:04;-1.50;99.90
24772;DHT22;12870;52.274;9.754;2023-03-01T08:15:29;-1.50;99.90
24772;DHT22;12870;52.274;9.754;2023-03-01T08:17:55;-1.50;99.90
24772;DHT22;12870;52.274;9.754;2023-03-01T08:20:21;-1.40;99.90
24772;DHT22;12870;52.274;9.754;2023-03-01T08:22:46;-1.30;99.90
24772;DHT22;12870;52.274;9.754;2023-03-01T08:25:12;-1.30;99.90
24772;DHT22;12870;52.274;9.754;2023-03-01T08:27:38;-1.20;99.90
24772;DHT22;12870;52.274;9.754;2023-03-01T08:30:04;-1.10;99.90
24772;DHT22;12870;52.274;9.754;2023-03-01T08:32:32;-1.10;99.90
24772;DHT22;12870;52.274;9.754;2023-03-01T08:35:00;-1.00;99.90
24772;DHT22;12870;52.274;9.754;2023-03-01T08:37:26;-1.00;99.90
24772;DHT22;12870;52.274;9.754;2023-03-01T08:39:51;-0.90;99.90
24772;DHT22;12870;52.274;9.754;2023-03-01T08:42:17;-0.80;99.90
24772;DHT22;12870;52.274;9.754;2023-03-01T08:44:42;-0.70;99.90
24772;DHT22;12870;52.274;9.754;2023-03-01T08:47:08;-0.50;99.90
24772;DHT22;12870;52.274;9.754;2023-03-01T08:49:34;-0.40;99.90
24772;DHT22;12870;52.274;9.754;2023-03-01T08:51:59;-0.30;99.90
24772;DHT22;12870;52.274;9.754;2023-03-01T08:54:27;-0.20;99.90
24772;DHT22;12870;52.274;9.754;2023-03-01T08:56:54;-0.20;99.90
24772;DHT22;12870;52.274;9.754;2023-03-01T08:59:19;-0.20;99.90
24772;DHT22;12870;52.274;9.754;2023-03-01T09:01:45;-0.20;99.90
24772;DHT22;12870;52.274;9.754;2023-03-01T09:04:12;-0.10;99.90
24772;DHT22;12870;52.274;9.754;2023-03-01T09:06:38;0.00;99.90
24772;DHT22;12870;52.274;9.754;2023-03-01T09:09:05;0.10;99.90
24772;DHT22;12870;52.274;9.754;2023-03-01T09:11:30;0.20;99.90
24772;DHT22;12870;52.274;9.754;2023-03-01T09:13:56;0.30;99.90
24772;DHT22;12870;52.274;9.754;2023-03-01T09:16:24;0.50;99.90
24772;DHT22;12870;52.274;9.754;2023-03-01T09:18:54;0.50;99.90
24772;DHT22;12870;52.274;9.754;2023-03-01T09:21:21;0.60;99.90
24772;DHT22;12870;52.274;9.754;2023-03-01T09:23:48;0.80;99.90
24772;DHT22;12870;52.274;9.754;2023-03-01T09:26:17;0.90;99.90
24772;DHT22;12870;52.274;9.754;2023-03-01T09:28:45;1.00;99.90
24772;DHT22;12870;52.274;9.754;2023-03-01T09:31:11;1.20;99.90
24772;DHT22;12870;52.274;9.754;2023-03-01T09:33:41;1.40;99.90
24772;DHT22;12870;52.274;9.754;2023-03-01T09:36:11;1.50;99.90
24772;DHT22;12870;52.274;9.754;2023-03-01T09:38:37;1.60;99.90
24772;DHT22;12870;52.274;9.754;2023-03-01T09:43:57;1.90;99.90
24772;DHT22;12870;52.274;9.754;2023-03-01T09:46:25;2.00;99.90
24772;DHT22;12870;52.274;9.754;2023-03-01T09:48:55;2.20;99.90
24772;DHT22;12870;52.274;9.754;2023-03-01T09:51:42;2.40;99.90
24772;DHT22;12870;52.274;9.754;2023-03-01T09:54:09;2.60;99.90
24772;DHT22;12870;52.274;9.754;2023-03-01T10:01:59;3.20;99.90
24772;DHT22;12870;52.274;9.754;2023-03-01T10:04:47;3.40;99.90
24772;DHT22;12870;52.274;9.754;2023-03-01T10:09:57;3.60;99.90
24772;DHT22;12870;52.274;9.754;2023-03-01T10:12:27;3.70;99.90
24772;DHT22;12870;52.274;9.754;2023-03-01T10:15:24;3.70;99.90
24772;DHT22;12870;52.274;9.754;2023-03-01T10:17:55;3.60;99.90
24772;DHT22;12870;52.274;9.754;2023-03-01T10:20:46;3.70;99.90
24772;DHT22;12870;52.274;9.754;2023-03-01T10:23:15;3.90;99.90
24772;DHT22;12870;52.274;9.754;2023-03-01T10:25:57;4.10;99.90
24772;DHT22;12870;52.274;9.754;2023-03-01T10:29:08;4.30;99.90
24772;DHT22;12870;52.274;9.754;2023-03-01T10:31:48;4.50;99.90
24772;DHT22;12870;52.274;9.754;2023-03-01T10:34:18;4.70;99.90
24772;DHT22;12870;52.274;9.754;2023-03-01T10:36:47;4.70;99.90
24772;DHT22;12870;52.274;9.754;2023-03-01T10:39:18;4.70;99.90
24772;DHT22;12870;52.274;9.754;2023-03-01T10:42:03;4.80;99.90
24772;DHT22;12870;52.274;9.754;2023-03-01T10:47:04;5.20;99.90
24772;DHT22;12870;52.274;9.754;2023-03-01T10:49:29;5.40;99.90
24772;DHT22;12870;52.274;9.754;2023-03-01T10:51:55;5.60;99.90
24772;DHT22;12870;52.274;9.754;2023-03-01T10:56:54;6.40;99.90
24772;DHT22;12870;52.274;9.754;2023-03-01T10:59:41;7.20;99.90
24772;DHT22;12870;52.274;9.754;2023-03-01T11:04:58;9.80;99.90
24772;DHT22;12870;52.274;9.754;2023-03-01T11:07:24;10.90;99.90
24772;DHT22;12870;52.274;9.754;2023-03-01T11:09:50;11.60;99.90
24772;DHT22;12870;52.274;9.754;2023-03-01T11:12:16;12.20;99.90
24772;DHT22;12870;52.274;9.754;2023-03-01T11:14:54;13.30;99.90
24772;DHT22;12870;52.274;9.754;2023-03-01T11:17:31;14.00;99.90
24772;DHT22;12870;52.274;9.754;2023-03-01T11:25:51;15.40;94.80
24772;DHT22;12870;52.274;9.754;2023-03-01T11:28:20;15.40;92.00
24772;DHT22;12870;52.274;9.754;2023-03-01T11:36:05;16.70;86.80
24772;DHT22;12870;52.274;9.754;2023-03-01T11:38:35;16.90;84.20
24772;DHT22;12870;52.274;9.754;2023-03-01T11:41:13;17.60;81.40
24772;DHT22;12870;52.274;9.754;2023-03-01T11:43:51;18.20;80.20
24772;DHT22;12870;52.274;9.754;2023-03-01T11:57:33;18.00;63.10
24772;DHT22;12870;52.274;9.754;2023-03-01T12:08:40;18.50;62.10
24772;DHT22;12870;52.274;9.754;2023-03-01T12:11:41;18.70;58.60
24772;DHT22;12870;52.274;9.754;2023-03-01T12:25:41;19.50;57.10
24772;DHT22;12870;52.274;9.754;2023-03-01T12:42:49;19.90;52.10
24772;DHT22;12870;52.274;9.754;2023-03-01T12:45:30;19.50;49.00
24772;DHT22;12870;52.274;9.754;2023-03-01T12:48:08;19.80;49.90
24772;DHT22;12870;52.274;9.754;2023-03-01T12:50:46;20.00;49.20
24772;DHT22;12870;52.274;9.754;2023-03-01T12:53:51;19.80;48.20
24772;DHT22;12870;52.274;9.754;2023-03-01T12:56:23;19.70;48.60
24772;DHT22;12870;52.274;9.754;2023-03-01T13:01:53;19.90;47.70
24772;DHT22;12870;52.274;9.754;2023-03-01T13:07:11;20.20;47.00
24772;DHT22;12870;52.274;9.754;2023-03-01T13:09:47;20.00;47.70
24772;DHT22;12870;52.274;9.754;2023-03-01T13:12:44;19.90;47.00
24772;DHT22;12870;52.274;9.754;2023-03-01T13:20:18;20.00;47.20
24772;DHT22;12870;52.274;9.754;2023-03-01T13:22:46;19.70;46.00
24772;DHT22;12870;52.274;9.754;2023-03-01T13:25:18;19.90;44.40
24772;DHT22;12870;52.274;9.754;2023-03-01T13:27:45;20.30;43.90
24772;DHT22;12870;52.274;9.754;2023-03-01T13:35:57;20.30;44.20
24772;DHT22;12870;52.274;9.754;2023-03-01T13:46:51;20.40;43.50
24772;DHT22;12870;52.274;9.754;2023-03-01T13:49:25;20.70;43.00
24772;DHT22;12870;52.274;9.754;2023-03-01T13:51:52;20.90;42.70
24772;DHT22;12870;52.274;9.754;2023-03-01T13:54:30;20.80;41.60
24772;DHT22;12870;52.274;9.754;2023-03-01T13:56:58;20.30;41.80
24772;DHT22;12870;52.274;9.754;2023-03-01T13:59:24;20.50;42.30
24772;DHT22;12870;52.274;9.754;2023-03-01T14:01:58;20.20;41.30
24772;DHT22;12870;52.274;9.754;2023-03-01T14:04:29;19.80;40.40
24772;DHT22;12870;52.274;9.754;2023-03-01T14:09:46;19.80;42.30
24772;DHT22;12870;52.274;9.754;2023-03-01T14:17:55;20.30;40.90
24772;DHT22;12870;52.274;9.754;2023-03-01T14:20:26;20.40;40.50
24772;DHT22;12870;52.274;9.754;2023-03-01T14:22:55;20.40;40.10
24772;DHT22;12870;52.274;9.754;2023-03-01T14:25:34;20.10;40.00
24772;DHT22;12870;52.274;9.754;2023-03-01T14:30:49;20.40;40.50
24772;DHT22;12870;52.274;9.754;2023-03-01T14:33:22;20.40;40.20
24772;DHT22;12870;52.274;9.754;2023-03-01T14:38:36;20.60;38.70
24772;DHT22;12870;52.274;9.754;2023-03-01T14:41:23;20.40;38.40
24772;DHT22;12870;52.274;9.754;2023-03-01T14:44:11;20.50;40.20
24772;DHT22;12870;52.274;9.754;2023-03-01T14:46:42;20.70;38.90
24772;DHT22;12870;52.274;9.754;2023-03-01T14:51:46;20.50;38.20
24772;DHT22;12870;52.274;9.754;2023-03-01T14:54:28;20.30;37.70
24772;DHT22;12870;52.274;9.754;2023-03-01T14:56:59;19.60;37.60
24772;DHT22;12870;52.274;9.754;2023-03-01T14:59:26;19.40;37.90
24772;DHT22;12870;52.274;9.754;2023-03-01T15:01:54;19.60;38.20
24772;DHT22;12870;52.274;9.754;2023-03-01T15:04:22;19.60;38.10
24772;DHT22;12870;52.274;9.754;2023-03-01T15:06:52;19.60;37.90
24772;DHT22;12870;52.274;9.754;2023-03-01T15:09:19;19.50;37.90
24772;DHT22;12870;52.274;9.754;2023-03-01T15:11:45;19.10;38.30
24772;DHT22;12870;52.274;9.754;2023-03-01T15:16:53;19.10;38.50
24772;DHT22;12870;52.274;9.754;2023-03-01T15:19:19;18.90;38.80
24772;DHT22;12870;52.274;9.754;2023-03-01T15:21:48;18.90;38.60
24772;DHT22;12870;52.274;9.754;2023-03-01T15:24:23;19.00;38.50
24772;DHT22;12870;52.274;9.754;2023-03-01T15:26:52;18.90;38.10
24772;DHT22;12870;52.274;9.754;2023-03-01T15:29:25;18.90;38.30
24772;DHT22;12870;52.274;9.754;2023-03-01T15:31:58;19.00;38.70
24772;DHT22;12870;52.274;9.754;2023-03-01T15:34:24;18.80;37.50
24772;DHT22;12870;52.274;9.754;2023-03-01T15:36:53;18.70;37.60
24772;DHT22;12870;52.274;9.754;2023-03-01T15:39:43;18.30;37.80
24772;DHT22;12870;52.274;9.754;2023-03-01T15:47:57;18.00;38.60
24772;DHT22;12870;52.274;9.754;2023-03-01T15:50:36;17.80;38.10
24772;DHT22;12870;52.274;9.754;2023-03-01T15:53:10;17.10;38.20
24772;DHT22;12870;52.274;9.754;2023-03-01T15:55:37;16.90;38.40
24772;DHT22;12870;52.274;9.754;2023-03-01T15:58:12;16.60;39.20
24772;DHT22;12870;52.274;9.754;2023-03-01T16:00:38;16.60;39.90
24772;DHT22;12870;52.274;9.754;2023-03-01T16:03:05;16.40;39.20
24772;DHT22;12870;52.274;9.754;2023-03-01T16:05:33;16.40;39.50
24772;DHT22;12870;52.274;9.754;2023-03-01T16:08:00;16.30;39.50
24772;DHT22;12870;52.274;9.754;2023-03-01T16:10:27;16.00;40.00
24772;DHT22;12870;52.274;9.754;2023-03-01T16:12:53;15.80;40.20
24772;DHT22;12870;52.274;9.754;2023-03-01T16:15:23;15.50;41.00
24772;DHT22;12870;52.274;9.754;2023-03-01T16:17:50;15.30;41.00
24772;DHT22;12870;52.274;9.754;2023-03-01T16:20:16;15.30;41.40
24772;DHT22;12870;52.274;9.754;2023-03-01T16:22:42;15.20;41.90
24772;DHT22;12870;52.274;9.754;2023-03-01T16:25:10;15.00;41.70
24772;DHT22;12870;52.274;9.754;2023-03-01T16:27:36;14.80;42.40
24772;DHT22;12870;52.274;9.754;2023-03-01T16:30:03;14.50;42.60
24772;DHT22;12870;52.274;9.754;2023-03-01T16:32:29;14.40;43.40
24772;DHT22;12870;52.274;9.754;2023-03-01T16:34:55;14.00;43.50
24772;DHT22;12870;52.274;9.754;2023-03-01T16:37:21;13.70;48.80
24772;DHT22;12870;52.274;9.754;2023-03-01T16:39:47;13.00;44.00
24772;DHT22;12870;52.274;9.754;2023-03-01T16:42:16;12.30;48.40
24772;DHT22;12870;52.274;9.754;2023-03-01T16:44:42;11.60;46.40
24772;DHT22;12870;52.274;9.754;2023-03-01T16:47:07;10.90;47.80
24772;DHT22;12870;52.274;9.754;2023-03-01T16:49:33;9.90;52.60
24772;DHT22;12870;52.274;9.754;2023-03-01T16:51:59;9.70;69.40
24772;DHT22;12870;52.274;9.754;2023-03-01T16:54:24;9.30;60.50
24772;DHT22;12870;52.274;9.754;2023-03-01T16:56:50;9.10;61.30
24772;DHT22;12870;52.274;9.754;2023-03-01T16:59:16;8.50;54.60
24772;DHT22;12870;52.274;9.754;2023-03-01T17:01:43;8.20;56.40
24772;DHT22;12870;52.274;9.754;2023-03-01T17:04:11;8.00;57.90
24772;DHT22;12870;52.274;9.754;2023-03-01T17:06:37;7.80;59.40
24772;DHT22;12870;52.274;9.754;2023-03-01T17:09:03;7.60;61.30
24772;DHT22;12870;52.274;9.754;2023-03-01T17:11:29;7.40;62.20
24772;DHT22;12870;52.274;9.754;2023-03-01T17:13:54;7.20;63.90
24772;DHT22;12870;52.274;9.754;2023-03-01T17:16:20;7.00;66.10
24772;DHT22;12870;52.274;9.754;2023-03-01T17:18:46;6.90;67.20
24772;DHT22;12870;52.274;9.754;2023-03-01T17:21:13;6.80;68.30
24772;DHT22;12870;52.274;9.754;2023-03-01T17:23:41;6.60;70.30
24772;DHT22;12870;52.274;9.754;2023-03-01T17:26:07;6.50;71.30
24772;DHT22;12870;52.274;9.754;2023-03-01T17:28:35;6.40;73.10
24772;DHT22;12870;52.274;9.754;2023-03-01T17:31:02;6.30;74.60
24772;DHT22;12870;52.274;9.754;2023-03-01T17:33:29;6.20;76.30
24772;DHT22;12870;52.274;9.754;2023-03-01T17:35:58;6.10;77.90
24772;DHT22;12870;52.274;9.754;2023-03-01T17:38:24;6.00;79.60
24772;DHT22;12870;52.274;9.754;2023-03-01T17:40:50;5.90;80.60
24772;DHT22;12870;52.274;9.754;2023-03-01T17:43:16;5.90;81.90
24772;DHT22;12870;52.274;9.754;2023-03-01T17:45:44;5.80;83.20
24772;DHT22;12870;52.274;9.754;2023-03-01T17:48:13;5.70;85.20
24772;DHT22;12870;52.274;9.754;2023-03-01T17:50:39;5.60;86.40
24772;DHT22;12870;52.274;9.754;2023-03-01T17:53:06;5.50;88.50
24772;DHT22;12870;52.274;9.754;2023-03-01T17:55:35;5.40;90.00
24772;DHT22;12870;52.274;9.754;2023-03-01T17:58:02;5.30;90.30
24772;DHT22;12870;52.274;9.754;2023-03-01T18:00:28;5.20;90.90